createdAt,value
2023-01-13T00:01:28.187Z,63.55
2023-01-13T00:03:57.344Z,63.30
2023-01-13T00:06:26.302Z,64.08
2023-01-13T00:08:54.712Z,64.55
2023-01-13T00:11:23.491Z,65.51
2023-01-13T00:13:51.722Z,65.86
2023-01-13T00:16:20.972Z,65.97
2023-01-13T00:18:51.276Z,65.45
2023-01-13T00:21:22.375Z,65.45
2023-01-13T00:23:54.124Z,65.43
2023-01-13T00:26:28.170Z,66.17
2023-01-13T00:28:58.483Z,67.29
2023-01-13T00:31:29.319Z,67.68
2023-01-13T00:33:59.577Z,67.64
2023-01-13T00:36:29.319Z,66.34
2023-01-13T00:38:58.073Z,65.39
2023-01-13T00:41:27.543Z,66.02
2023-01-13T00:43:55.608Z,66.46
2023-01-13T00:46:24.026Z,67.12
2023-01-13T00:48:52.347Z,66.92
2023-01-13T00:51:21.916Z,67.20
2023-01-13T00:53:52.004Z,67.20
2023-01-13T00:56:39.256Z,67.39
2023-01-13T00:59:12.278Z,67.13
2023-01-13T01:01:41.442Z,67.52
2023-01-13T01:04:09.560Z,67.79
2023-01-13T01:06:37.911Z,69.63
2023-01-13T01:09:06.876Z,69.51
2023-01-13T01:11:35.309Z,68.02
2023-01-13T01:14:04.379Z,66.62
2023-01-13T01:16:34.176Z,66.65
2023-01-13T01:19:03.676Z,66.03
2023-01-13T01:21:32.627Z,65.73
2023-01-13T01:24:02.883Z,65.06
2023-01-13T01:26:31.961Z,64.66
2023-01-13T01:29:02.299Z,65.14
2023-01-13T01:31:33.552Z,65.92
2023-01-13T01:34:01.981Z,65.76
2023-01-13T01:36:30.475Z,65.05
2023-01-13T01:39:00.078Z,65.23
2023-01-13T01:41:32.512Z,64.52
2023-01-13T01:44:38.402Z,64.03
2023-01-13T01:47:06.712Z,63.33
2023-01-13T01:49:37.367Z,63.94
2023-01-13T01:52:39.164Z,64.06
2023-01-13T01:55:34.601Z,63.94
2023-01-13T01:58:15.515Z,64.19
2023-01-13T02:00:44.228Z,64.47
2023-01-13T02:03:13.217Z,64.35
2023-01-13T02:05:41.686Z,64.44
2023-01-13T02:08:12.649Z,64.56
2023-01-13T02:10:42.984Z,65.26
2023-01-13T02:13:13.653Z,65.55
2023-01-13T02:15:51.053Z,65.42
2023-01-13T02:18:37.974Z,65.62
2023-01-13T02:21:40.042Z,65.69
2023-01-13T02:24:51.450Z,66.07
2023-01-13T02:27:25.400Z,66.44
2023-01-13T02:30:50.817Z,66.52
2023-01-13T02:33:49.336Z,66.16
2023-01-13T02:36:35.313Z,67.31
2023-01-13T02:39:16.911Z,67.68
2023-01-13T02:42:07.822Z,67.92
2023-01-13T02:44:59.031Z,67.10
2023-01-13T02:47:31.193Z,67.13
2023-01-13T02:50:04.068Z,66.83
2023-01-13T02:52:38.272Z,66.17
2023-01-13T02:55:23.685Z,65.90
2023-01-13T02:57:54.195Z,65.62
2023-01-13T03:00:23.898Z,65.71
2023-01-13T03:02:52.556Z,65.70
2023-01-13T03:05:20.885Z,66.45
2023-01-13T03:08:01.801Z,67.72
2023-01-13T03:10:33.500Z,68.79
2023-01-13T03:13:04.629Z,68.33
2023-01-13T03:16:06.519Z,68.82
2023-01-13T03:18:48.006Z,69.38
2023-01-13T03:21:25.567Z,69.42
2023-01-13T03:23:58.501Z,68.89
2023-01-13T03:26:35.784Z,68.19
2023-01-13T03:29:24.597Z,67.82
2023-01-13T03:32:05.806Z,67.15
2023-01-13T03:34:45.953Z,66.80
2023-01-13T03:37:17.636Z,67.07
2023-01-13T03:39:54.966Z,68.12
2023-01-13T03:42:26.379Z,67.54
2023-01-13T03:45:01.581Z,66.81
2023-01-13T03:47:49.387Z,67.25
2023-01-13T03:50:23.517Z,67.45
2023-01-13T03:53:15.795Z,66.66
2023-01-13T03:55:48.850Z,65.92
2023-01-13T03:58:35.436Z,65.58
2023-01-13T04:01:35.315Z,65.57
2023-01-13T04:04:07.226Z,65.16
2023-01-13T04:06:50.605Z,64.67
2023-01-13T04:09:21.207Z,64.52
2023-01-13T04:11:56.640Z,66.16
2023-01-13T04:14:26.166Z,67.50
2023-01-13T04:16:57.252Z,67.78
2023-01-13T04:19:25.380Z,67.37
2023-01-13T04:21:53.409Z,67.43
2023-01-13T04:24:21.697Z,68.14
2023-01-13T04:26:50.666Z,68.46
2023-01-13T04:29:18.729Z,68.94
2023-01-13T04:31:46.911Z,68.90
2023-01-13T04:34:15.075Z,68.71
2023-01-13T04:36:43.799Z,68.19
2023-01-13T04:39:12.483Z,67.39
2023-01-13T04:41:58.833Z,67.40
2023-01-13T04:44:27.565Z,67.76
2023-01-13T04:46:56.362Z,67.66
2023-01-13T04:49:24.801Z,67.13
2023-01-13T04:51:53.246Z,66.94
2023-01-13T04:54:21.670Z,67.45
2023-01-13T04:56:49.953Z,67.75
2023-01-13T04:59:18.010Z,66.96
2023-01-13T05:01:46.239Z,66.74
2023-01-13T05:04:15.632Z,65.91
2023-01-13T05:06:43.960Z,65.81
2023-01-13T05:09:13.482Z,65.40
2023-01-13T05:12:00.941Z,64.84
2023-01-13T05:14:48.037Z,64.62
2023-01-13T05:17:22.707Z,64.31
2023-01-13T05:19:51.295Z,64.40
2023-01-13T05:22:38.118Z,64.74
2023-01-13T05:25:24.659Z,64.14
2023-01-13T05:27:55.986Z,63.95
2023-01-13T05:30:26.771Z,64.17
2023-01-13T05:32:55.285Z,63.95
2023-01-13T05:35:24.480Z,65.32
2023-01-13T05:37:52.495Z,65.24
2023-01-13T05:40:39.169Z,65.25
2023-01-13T05:43:24.933Z,65.33
2023-01-13T05:46:05.664Z,65.50
2023-01-13T05:48:42.652Z,65.29
2023-01-13T05:51:12.875Z,65.11
2023-01-13T05:53:41.618Z,65.33
2023-01-13T05:56:11.321Z,66.41
2023-01-13T05:58:39.658Z,66.63
2023-01-13T06:01:09.547Z,66.59
2023-01-13T06:03:38.487Z,66.70
2023-01-13T06:06:09.193Z,66.98
2023-01-13T06:08:39.695Z,67.88
2023-01-13T06:11:08.222Z,68.86
2023-01-13T06:13:36.296Z,68.91
2023-01-13T06:16:05.092Z,68.88
2023-01-13T06:18:33.474Z,69.10
2023-01-13T06:21:01.842Z,68.25
2023-01-13T06:23:32.170Z,69.50
2023-01-13T06:26:08.483Z,69.45
2023-01-13T06:28:36.708Z,67.81
2023-01-13T06:31:07.906Z,68.06
2023-01-13T06:33:44.640Z,68.13
2023-01-13T06:36:26.999Z,67.47
2023-01-13T06:38:59.650Z,66.83
2023-01-13T06:41:48.423Z,67.15
2023-01-13T06:44:17.918Z,67.64
2023-01-13T06:46:46.861Z,67.65
2023-01-13T06:49:15.038Z,68.13
2023-01-13T06:51:44.421Z,67.84
2023-01-13T06:54:12.702Z,67.63
2023-01-13T06:56:40.768Z,67.51
2023-01-13T06:59:09.069Z,66.69
2023-01-13T07:01:37.232Z,66.60
2023-01-13T07:04:05.937Z,66.16
2023-01-13T07:06:34.029Z,66.01
2023-01-13T07:09:02.999Z,66.08
2023-01-13T07:11:31.337Z,65.69
2023-01-13T07:14:20.299Z,65.63
2023-01-13T07:16:48.520Z,65.25
2023-01-13T07:19:23.279Z,65.10
2023-01-13T07:21:52.708Z,64.89
2023-01-13T07:24:22.571Z,64.49
2023-01-13T07:26:52.156Z,63.90
2023-01-13T07:29:23.058Z,64.15
2023-01-13T07:31:51.157Z,63.64
2023-01-13T07:34:19.505Z,63.25
2023-01-13T07:36:47.951Z,62.93
2023-01-13T07:39:15.997Z,62.60
2023-01-13T07:42:02.687Z,62.87
2023-01-13T07:44:30.796Z,63.73
2023-01-13T07:46:58.917Z,63.84
2023-01-13T07:49:27.179Z,63.75
2023-01-13T07:51:55.244Z,63.19
2023-01-13T07:54:35.137Z,62.89
2023-01-13T07:57:08.697Z,63.27
2023-01-13T07:59:37.210Z,63.29
2023-01-13T08:02:05.483Z,63.38
2023-01-13T08:04:34.146Z,62.85
2023-01-13T08:07:02.469Z,62.78
2023-01-13T08:09:30.560Z,63.20
2023-01-13T08:12:17.367Z,63.09
2023-01-13T08:14:45.772Z,62.81
2023-01-13T08:17:14.058Z,62.40
2023-01-13T08:19:42.255Z,61.85
2023-01-13T08:22:10.390Z,60.96
2023-01-13T08:24:38.899Z,60.68
2023-01-13T08:27:07.212Z,61.00
2023-01-13T08:29:35.424Z,61.13
2023-01-13T08:32:03.503Z,60.98
2023-01-13T08:34:31.618Z,60.85
2023-01-13T08:36:59.839Z,60.29
2023-01-13T08:39:28.170Z,60.01
2023-01-13T08:41:56.651Z,60.07
2023-01-13T08:44:27.735Z,59.93
2023-01-13T08:46:56.566Z,60.24
2023-01-13T08:49:25.615Z,59.73
2023-01-13T08:51:54.308Z,59.74
2023-01-13T08:54:22.793Z,59.46
2023-01-13T08:56:51.073Z,59.53
2023-01-13T08:59:20.463Z,60.46
2023-01-13T09:01:48.780Z,60.84
2023-01-13T09:04:20.233Z,60.26
2023-01-13T09:06:49.461Z,60.37
2023-01-13T09:09:18.164Z,59.87
2023-01-13T09:12:07.945Z,59.27
2023-01-13T09:14:38.318Z,58.94
2023-01-13T09:17:07.944Z,57.95
2023-01-13T09:19:36.952Z,57.45
2023-01-13T09:22:05.306Z,56.78
2023-01-13T09:24:33.627Z,56.68
2023-01-13T09:27:02.314Z,55.73
2023-01-13T09:29:30.486Z,55.13
2023-01-13T09:31:58.496Z,55.08
2023-01-13T09:34:46.593Z,54.36
2023-01-13T09:37:14.987Z,54.23
2023-01-13T09:39:43.434Z,53.31
2023-01-13T09:42:33.375Z,53.41
2023-01-13T09:45:09.394Z,53.29
2023-01-13T09:48:00.103Z,53.17
2023-01-13T09:50:46.907Z,52.35
2023-01-13T09:53:40.474Z,53.67
2023-01-13T09:56:11.316Z,53.57
2023-01-13T09:58:39.583Z,53.90
2023-01-13T10:01:29.598Z,53.45
2023-01-13T10:04:02.712Z,53.30
2023-01-13T10:06:38.818Z,52.99
2023-01-13T10:09:30.860Z,54.51
2023-01-13T10:12:19.871Z,56.10
2023-01-13T10:14:54.642Z,55.71
2023-01-13T10:17:36.951Z,55.37
2023-01-13T10:20:08.323Z,55.76
2023-01-13T10:22:59.219Z,55.61
2023-01-13T10:25:55.062Z,55.56
2023-01-13T10:28:25.249Z,55.44
2023-01-13T10:30:53.691Z,55.41
2023-01-13T10:33:27.774Z,54.79
2023-01-13T10:36:02.471Z,55.09
2023-01-13T10:38:38.031Z,54.57
2023-01-13T10:41:19.580Z,54.44
2023-01-13T10:44:04.311Z,53.79
2023-01-13T10:46:35.325Z,53.72
2023-01-13T10:49:23.205Z,53.85
2023-01-13T10:51:51.335Z,53.64
2023-01-13T10:54:25.316Z,52.77
2023-01-13T10:57:13.989Z,51.98
2023-01-13T10:59:42.739Z,51.53
2023-01-13T11:02:25.295Z,52.06
2023-01-13T11:04:54.614Z,51.86
2023-01-13T11:07:30.927Z,54.06
2023-01-13T11:10:20.878Z,55.97
2023-01-13T11:13:01.272Z,57.43
2023-01-13T11:15:58.921Z,56.41
2023-01-13T11:18:52.111Z,56.14
2023-01-13T11:21:51.697Z,55.97
2023-01-13T11:24:45.168Z,55.82
2023-01-13T11:27:20.571Z,55.59
2023-01-13T11:30:10.030Z,55.96
2023-01-13T11:32:56.283Z,55.58
2023-01-13T11:35:25.368Z,54.96
2023-01-13T11:38:03.082Z,54.57
2023-01-13T11:40:37.936Z,54.72
2023-01-13T11:43:29.963Z,53.93
2023-01-13T11:46:01.226Z,52.77
2023-01-13T11:48:32.893Z,53.11
2023-01-13T11:51:00.901Z,52.98
2023-01-13T11:53:34.713Z,50.70
2023-01-13T11:56:08.969Z,50.16
2023-01-13T11:58:57.888Z,50.73
2023-01-13T12:01:32.790Z,51.72
2023-01-13T12:04:18.516Z,51.94
2023-01-13T12:06:50.659Z,53.18
2023-01-13T12:09:26.105Z,54.45
2023-01-13T12:12:45.077Z,56.52
2023-01-13T12:15:22.567Z,57.42
2023-01-13T12:18:07.626Z,57.95
2023-01-13T12:20:52.800Z,58.20
2023-01-13T12:23:30.201Z,57.96
2023-01-13T12:26:11.891Z,58.30
2023-01-13T12:29:00.799Z,58.30
2023-01-13T12:31:30.329Z,58.43
2023-01-13T12:34:14.441Z,57.57
2023-01-13T12:37:11.849Z,58.63
2023-01-13T12:39:39.868Z,59.80
2023-01-13T12:42:35.232Z,60.56
2023-01-13T12:45:12.363Z,60.63
2023-01-13T12:47:44.403Z,60.70
2023-01-13T12:50:27.320Z,59.77
2023-01-13T12:53:21.380Z,59.05
2023-01-13T12:55:53.364Z,58.17
2023-01-13T12:58:28.438Z,58.28
2023-01-13T13:01:12.109Z,57.91
2023-01-13T13:03:40.899Z,58.39
2023-01-13T13:06:20.866Z,59.02
2023-01-13T13:09:16.303Z,58.79
2023-01-13T13:11:58.260Z,59.25
2023-01-13T13:14:41.839Z,60.38
2023-01-13T13:17:28.581Z,60.28
2023-01-13T13:19:58.325Z,59.78
2023-01-13T13:22:26.338Z,60.73
2023-01-13T13:24:54.646Z,61.34
2023-01-13T13:27:27.735Z,61.25
2023-01-13T13:30:13.420Z,61.54
2023-01-13T13:32:44.786Z,61.79
2023-01-13T13:35:40.387Z,61.66
2023-01-13T13:38:49.923Z,61.61
2023-01-13T13:41:41.447Z,61.59
2023-01-13T13:44:37.577Z,61.43
2023-01-13T13:47:08.019Z,61.33
2023-01-13T13:49:41.424Z,61.04
2023-01-13T13:52:18.287Z,60.85
2023-01-13T13:54:52.116Z,60.43
2023-01-13T13:57:39.432Z,60.35
2023-01-13T14:00:33.515Z,59.99
2023-01-13T14:03:05.578Z,60.22
2023-01-13T14:05:36.193Z,60.65
2023-01-13T14:08:14.804Z,60.60
2023-01-13T14:10:45.234Z,60.81
2023-01-13T14:13:28.780Z,61.04
2023-01-13T14:16:15.543Z,61.20
2023-01-13T14:18:48.328Z,61.53
2023-01-13T14:21:19.606Z,61.66
2023-01-13T14:23:53.851Z,62.37
2023-01-13T14:26:27.894Z,62.80
2023-01-13T14:28:58.502Z,63.37
2023-01-13T14:31:27.321Z,63.69
2023-01-13T14:33:58.368Z,63.75
2023-01-13T14:36:32.712Z,64.13
2023-01-13T14:39:03.975Z,64.00
2023-01-13T14:41:43.104Z,63.90
2023-01-13T14:44:31.543Z,64.95
2023-01-13T14:47:03.333Z,65.35
2023-01-13T14:49:39.661Z,65.50
2023-01-13T14:52:21.144Z,65.22
2023-01-13T14:55:27.590Z,65.76
2023-01-13T14:58:23.432Z,66.01
2023-01-13T15:00:53.114Z,66.01
2023-01-13T15:03:21.811Z,66.18
2023-01-13T15:05:52.181Z,66.30
2023-01-13T15:08:27.505Z,66.27
2023-01-13T15:11:03.532Z,66.73
2023-01-13T15:13:52.828Z,67.68
2023-01-13T15:16:25.279Z,67.94
2023-01-13T15:18:56.236Z,68.72
2023-01-13T15:21:25.427Z,68.85
2023-01-13T15:23:53.704Z,69.37
2023-01-13T15:26:28.420Z,69.07
2023-01-13T15:28:59.252Z,68.94
2023-01-13T15:31:28.326Z,69.30
2023-01-13T15:33:57.243Z,70.13
2023-01-13T15:36:28.912Z,70.20
2023-01-13T15:38:58.405Z,70.72
2023-01-13T15:41:45.707Z,71.18
2023-01-13T15:44:34.063Z,70.75
2023-01-13T15:47:08.388Z,71.25
2023-01-13T15:49:42.227Z,71.16
2023-01-13T15:52:23.512Z,71.23
2023-01-13T15:54:53.136Z,71.32
2023-01-13T15:57:22.282Z,71.11
2023-01-13T15:59:51.973Z,70.91
2023-01-13T16:02:22.513Z,70.85
2023-01-13T16:04:53.912Z,70.73
2023-01-13T16:07:24.800Z,71.14
2023-01-13T16:09:53.585Z,71.31
2023-01-13T16:12:21.759Z,71.53
2023-01-13T16:14:49.840Z,71.72
2023-01-13T16:17:24.093Z,71.77
2023-01-13T16:19:52.327Z,71.92
2023-01-13T16:22:20.417Z,72.40
2023-01-13T16:24:48.705Z,72.78
2023-01-13T16:27:22.397Z,73.29
2023-01-13T16:29:51.860Z,73.00
2023-01-13T16:32:21.129Z,73.64
2023-01-13T16:34:49.891Z,74.39
2023-01-13T16:37:25.898Z,74.01
2023-01-13T16:39:55.063Z,74.41
2023-01-13T16:42:24.174Z,74.15
2023-01-13T16:44:53.044Z,73.85
2023-01-13T16:47:22.885Z,73.90
2023-01-13T16:49:51.561Z,73.75
2023-01-13T16:52:19.604Z,73.66
2023-01-13T16:54:47.685Z,74.02
2023-01-13T16:57:15.966Z,73.99
2023-01-13T16:59:44.363Z,73.88
2023-01-13T17:02:15.118Z,74.19
2023-01-13T17:04:43.597Z,73.83
2023-01-13T17:07:16.730Z,74.60
2023-01-13T17:09:45.033Z,74.71
2023-01-13T17:12:13.422Z,74.77
2023-01-13T17:14:43.528Z,74.55
2023-01-13T17:17:43.174Z,74.43
2023-01-13T17:20:12.917Z,74.49
2023-01-13T17:22:42.415Z,74.35
2023-01-13T17:25:13.547Z,74.97
2023-01-13T17:27:42.320Z,74.95
2023-01-13T17:30:14.194Z,75.14
2023-01-13T17:32:42.461Z,75.22
2023-01-13T17:35:10.588Z,75.72
2023-01-13T17:37:38.617Z,75.32
2023-01-13T17:40:07.718Z,75.72
2023-01-13T17:42:37.261Z,76.19
2023-01-13T17:45:07.072Z,76.14
2023-01-13T17:47:35.345Z,76.08
2023-01-13T17:50:04.841Z,75.99
2023-01-13T17:52:33.561Z,75.96
2023-01-13T17:55:01.701Z,76.37
2023-01-13T17:57:29.869Z,75.72
2023-01-13T17:59:59.724Z,76.11
2023-01-13T18:02:30.206Z,76.43
2023-01-13T18:04:58.514Z,76.26
2023-01-13T18:07:26.558Z,76.91
2023-01-13T18:09:54.852Z,77.03
2023-01-13T18:12:23.435Z,77.02
2023-01-13T18:14:51.587Z,77.16
2023-01-13T18:17:19.684Z,76.85
2023-01-13T18:20:06.455Z,76.38
2023-01-13T18:22:52.851Z,77.16
2023-01-13T18:25:39.372Z,77.20
2023-01-13T18:28:07.645Z,77.54
2023-01-13T18:30:35.770Z,76.60
2023-01-13T18:33:04.186Z,76.52
2023-01-13T18:35:32.463Z,76.01
2023-01-13T18:38:00.433Z,75.38
2023-01-13T18:40:28.606Z,75.20
2023-01-13T18:42:59.033Z,75.57
2023-01-13T18:45:29.951Z,74.95
2023-01-13T18:48:00.823Z,75.27
2023-01-13T18:50:30.515Z,75.05
2023-01-13T18:52:59.039Z,74.15
2023-01-13T18:55:28.821Z,74.24
2023-01-13T18:57:57.286Z,75.37
2023-01-13T19:00:27.253Z,74.99
2023-01-13T19:05:36.329Z,74.05
2023-01-13T19:08:05.539Z,73.91
2023-01-13T19:10:33.763Z,73.62
2023-01-13T19:13:02.321Z,74.35
2023-01-13T19:15:30.759Z,73.20
2023-01-13T19:17:58.834Z,71.99
2023-01-13T19:20:26.880Z,72.82
2023-01-13T19:22:55.084Z,73.72
2023-01-13T19:25:23.362Z,74.14
2023-01-13T19:27:51.634Z,74.41
2023-01-13T19:30:19.932Z,74.04
2023-01-13T19:32:48.078Z,74.02
2023-01-13T19:35:18.201Z,74.62
2023-01-13T19:37:46.989Z,73.21
2023-01-13T19:40:15.811Z,72.36
2023-01-13T19:43:13.241Z,71.77
2023-01-13T19:45:41.306Z,71.92
2023-01-13T19:48:09.526Z,73.59
2023-01-13T19:50:41.570Z,73.57
2023-01-13T19:53:16.653Z,71.98
2023-01-13T19:55:48.399Z,71.63
2023-01-13T19:58:20.817Z,71.06
2023-01-13T20:00:49.160Z,70.14
2023-01-13T20:03:20.842Z,70.65
2023-01-13T20:05:49.714Z,69.82
2023-01-13T20:08:22.667Z,67.78
2023-01-13T20:11:11.034Z,67.99
2023-01-13T20:13:39.267Z,68.09
2023-01-13T20:16:07.931Z,69.05
2023-01-13T20:18:37.323Z,69.65
2023-01-13T20:21:06.504Z,68.04
2023-01-13T20:23:34.552Z,67.54
2023-01-13T20:26:02.653Z,68.03
2023-01-13T20:28:30.699Z,66.99
2023-01-13T20:30:58.697Z,66.18
2023-01-13T20:33:26.818Z,66.72
2023-01-13T20:35:58.637Z,65.94
2023-01-13T20:38:26.896Z,66.61
2023-01-13T20:40:59.471Z,64.92
2023-01-13T20:43:27.817Z,66.38
2023-01-13T20:45:55.923Z,66.09
2023-01-13T20:48:24.195Z,64.16
2023-01-13T20:50:54.339Z,64.04
2023-01-13T20:53:22.691Z,63.60
2023-01-13T20:55:51.066Z,64.99
2023-01-13T20:58:19.136Z,64.30
2023-01-13T21:00:48.402Z,64.73
2023-01-13T21:03:16.515Z,66.00
2023-01-13T21:05:44.579Z,63.72
2023-01-13T21:08:12.759Z,65.22
2023-01-13T21:10:40.957Z,65.33
2023-01-13T21:13:29.673Z,65.38
2023-01-13T21:15:58.076Z,65.70
2023-01-13T21:18:45.078Z,66.48
2023-01-13T21:21:13.761Z,66.30
2023-01-13T21:23:43.805Z,65.99
2023-01-13T21:26:14.941Z,65.42
2023-01-13T21:28:42.933Z,64.93
2023-01-13T21:31:11.615Z,63.37
2023-01-13T21:33:39.978Z,64.77
2023-01-13T21:36:11.117Z,63.70
2023-01-13T21:38:39.824Z,63.45
2023-01-13T21:41:09.311Z,64.35
2023-01-13T21:43:56.303Z,64.88
2023-01-13T21:46:43.483Z,64.89
2023-01-13T21:49:11.781Z,64.57
2023-01-13T21:51:40.066Z,64.59
2023-01-13T21:54:08.081Z,64.05
2023-01-13T21:56:36.077Z,65.17
2023-01-13T21:59:04.145Z,64.43
2023-01-13T22:01:32.409Z,62.96
2023-01-13T22:04:12.651Z,63.63
2023-01-13T22:06:40.850Z,63.84
2023-01-13T22:09:08.937Z,63.78
2023-01-13T22:11:37.112Z,63.25
2023-01-13T22:14:11.185Z,63.13
2023-01-13T22:16:42.361Z,63.64
2023-01-13T22:19:10.852Z,63.53
2023-01-13T22:21:40.048Z,63.95
2023-01-13T22:24:08.349Z,63.41
2023-01-13T22:26:36.594Z,63.08
2023-01-13T22:29:04.673Z,63.14
2023-01-13T22:31:32.774Z,63.66
2023-01-13T22:34:01.326Z,64.29
2023-01-13T22:36:29.505Z,64.36
2023-01-13T22:39:00.394Z,63.90
2023-01-13T22:41:28.949Z,63.75
2023-01-13T22:43:57.352Z,64.24
2023-01-13T22:46:25.662Z,63.77
2023-01-13T22:48:56.045Z,63.33
2023-01-13T22:51:25.219Z,63.02
2023-01-13T22:53:54.381Z,62.48
2023-01-13T22:56:24.917Z,62.11
2023-01-13T22:58:58.428Z,62.54
2023-01-13T23:01:32.902Z,62.70
2023-01-13T23:04:02.237Z,63.89
2023-01-13T23:06:33.299Z,63.60
2023-01-13T23:09:01.754Z,63.04
2023-01-13T23:11:30.655Z,62.07
2023-01-13T23:14:04.186Z,62.48
2023-01-13T23:16:35.615Z,61.28
2023-01-13T23:19:05.189Z,61.82
2023-01-13T23:21:36.821Z,61.08
2023-01-13T23:24:07.152Z,61.46
2023-01-13T23:26:35.837Z,61.68
2023-01-13T23:29:09.264Z,61.36
2023-01-13T23:31:38.142Z,61.70
2023-01-13T23:34:06.306Z,61.88
2023-01-13T23:36:37.194Z,62.32
2023-01-13T23:39:05.327Z,61.39
2023-01-13T23:41:33.348Z,60.66
2023-01-13T23:44:01.761Z,60.33
2023-01-13T23:46:32.836Z,59.74
2023-01-13T23:49:02.713Z,59.69
2023-01-13T23:51:31.013Z,60.81
2023-01-13T23:54:00.010Z,61.35
2023-01-13T23:56:30.822Z,62.69
2023-01-13T23:58:59.397Z,62.25
